KLVM/LVM METAR and TAF weather

Enter ICAO airport designator
Station Type Date Time Source
KLVM METAR 2018/12/15 01:53 UTC NOAA

KLVM 150153Z AUTO 22022G32KT 10SM CLR 07/M07 A2992 RMK AO2 PK WND 23037/0107 SLP141 T00721072


Station Type Date Time Source
KLVM Decoded METAR 2018/12/15 01:53 UTC NOAA

LIVINGSTON MISSION FIELD, MT, United States (KLVM) 45-42N 110-26W 1418M
Dec 14, 2018 - 08:53 PM EST / 2018.12.15 0153 UTC
Wind: from the SW (220 degrees) at 25 MPH (22 KT) gusting to 37 MPH (32 KT):0
Visibility: 10 mile(s):0
Sky conditions: clear
Temperature: 45.0 F (7.2 C)
Dew Point: 19.0 F (-7.2 C)
Relative Humidity: 35%
Pressure (altimeter): 29.92 in. Hg (1013 hPa)
ob: KLVM 150153Z AUTO 22022G32KT 10SM CLR 07/M07 A2992 RMK AO2 PK WND 23037/0107 SLP141 T00721072
cycle: 2

Station Type Date Time Source
KLVM TAF 2018/12/14 18:22 UTC NOAA

TAF KLVM 141720Z 1418/1518 24027G38KT P6SM BKN200
FM150330 22033G47KT P6SM FEW090 BKN170


Example: see airport list